Time,TemperatureF,DewpointF,PressureIn,WindDirection,WindDirectionDegrees,WindSpeedMPH,WindSpeedGustMPH,Humidity,HourlyPrecipIn,Conditions,Clouds,dailyrainin,SoftwareType,DateUTC
2013-01-28 00:02:00,34.0,34.0,29.80,North,0,0.0,-999.0,100,-99.99,,,-99.99,,2013-01-28 06:02:00,
2013-01-28 00:11:00,34.0,34.0,29.80,North,0,0.0,-999.0,100,-99.99,,,-99.99,,2013-01-28 06:11:00,
2013-01-28 00:22:00,34.0,34.0,29.79,North,0,0.0,-999.0,100,-99.99,,,-99.99,,2013-01-28 06:22:00,
2013-01-28 00:32:00,34.0,34.0,29.80,North,0,0.0,-999.0,100,-99.99,,,-99.99,,2013-01-28 06:32:00,
2013-01-28 00:42:00,34.0,34.0,29.80,North,0,0.0,-999.0,100,-99.99,,,-99.99,,2013-01-28 06:42:00,
2013-01-28 00:52:00,34.0,34.0,29.81,North,0,0.0,-999.0,100,-99.99,,,-99.99,,2013-01-28 06:52:00,
2013-01-28 01:02:00,34.0,34.0,29.81,North,0,0.0,-999.0,100,-99.99,,,-99.99,,2013-01-28 07:02:00,
2013-01-28 01:11:00,34.0,34.0,29.81,North,0,0.0,-999.0,100,-99.99,,,-99.99,,2013-01-28 07:11:00,
2013-01-28 01:21:00,34.0,34.0,29.81,North,0,0.0,-999.0,100,-99.99,,,-99.99,,2013-01-28 07:21:00,
2013-01-28 01:32:00,34.0,34.0,29.81,North,0,0.0,-999.0,100,-99.99,,,-99.99,,2013-01-28 07:32:00,
2013-01-28 01:42:00,34.0,34.0,29.81,North,0,0.0,-999.0,100,-99.99,,,-99.99,,2013-01-28 07:42:00,
2013-01-28 01:51:00,34.0,34.0,29.82,North,0,0.0,-999.0,100,-99.99,,,-99.99,,2013-01-28 07:51:00,
2013-01-28 02:01:00,34.0,34.0,29.82,North,0,0.0,-999.0,100,-99.99,,,-99.99,,2013-01-28 08:01:00,
2013-01-28 02:11:00,34.0,34.0,29.82,North,0,0.0,-999.0,100,-99.99,,,-99.99,,2013-01-28 08:11:00,
2013-01-28 02:21:00,34.0,34.0,29.82,North,0,0.0,-999.0,100,-99.99,,,-99.99,,2013-01-28 08:21:00,
2013-01-28 02:32:00,34.0,34.0,29.82,North,0,0.0,-999.0,100,-99.99,,,-99.99,,2013-01-28 08:32:00,
2013-01-28 02:42:00,34.0,34.0,29.82,North,0,0.0,-999.0,100,-99.99,,,-99.99,,2013-01-28 08:42:00,
2013-01-28 02:52:00,34.0,34.0,29.82,North,0,0.0,-999.0,100,-99.99,,,-99.99,,2013-01-28 08:52:00,
2013-01-28 03:02:00,34.0,34.0,29.82,North,0,0.0,-999.0,100,-99.99,,,-99.99,,2013-01-28 09:02:00,
2013-01-28 03:11:00,34.0,34.0,29.82,North,0,0.0,-999.0,100,-99.99,,,-99.99,,2013-01-28 09:11:00,
2013-01-28 03:21:00,34.0,34.0,29.82,North,0,0.0,-999.0,100,-99.99,,,-99.99,,2013-01-28 09:21:00,
2013-01-28 03:32:00,34.0,34.0,29.82,North,0,0.0,-999.0,100,-99.99,,,-99.99,,2013-01-28 09:32:00,
2013-01-28 03:42:00,34.0,34.0,29.82,North,0,0.0,-999.0,100,-99.99,,,-99.99,,2013-01-28 09:42:00,
2013-01-28 03:51:00,34.0,34.0,29.82,North,0,0.0,-999.0,100,-99.99,,,-99.99,,2013-01-28 09:51:00,
2013-01-28 04:02:00,34.0,34.0,29.82,North,0,0.0,-999.0,100,-99.99,,,-99.99,,2013-01-28 10:02:00,
2013-01-28 04:11:00,34.0,34.0,29.82,North,0,0.0,-999.0,100,-99.99,,,-99.99,,2013-01-28 10:11:00,
2013-01-28 04:21:00,34.0,34.0,29.82,North,0,0.0,-999.0,100,-99.99,,,-99.99,,2013-01-28 10:21:00,
2013-01-28 04:32:00,34.0,34.0,29.83,North,0,0.0,-999.0,100,-99.99,,,-99.99,,2013-01-28 10:32:00,
2013-01-28 04:41:00,34.0,34.0,29.83,North,0,0.0,-999.0,100,-99.99,,,-99.99,,2013-01-28 10:41:00,
2013-01-28 04:51:00,34.0,34.0,29.84,North,0,0.0,-999.0,100,-99.99,,,-99.99,,2013-01-28 10:51:00,
2013-01-28 05:02:00,34.0,34.0,29.84,North,0,0.0,-999.0,100,-99.99,,,-99.99,,2013-01-28 11:02:00,
2013-01-28 05:11:00,34.0,34.0,29.85,North,0,0.0,-999.0,100,-99.99,,,-99.99,,2013-01-28 11:11:00,
2013-01-28 05:22:00,34.0,34.0,29.85,North,0,0.0,-999.0,100,-99.99,,,-99.99,,2013-01-28 11:22:00,
2013-01-28 05:32:00,34.0,34.0,29.84,North,0,0.0,-999.0,100,-99.99,,,-99.99,,2013-01-28 11:32:00,
2013-01-28 05:42:00,34.0,34.0,29.84,North,0,0.0,-999.0,100,-99.99,,,-99.99,,2013-01-28 11:42:00,
2013-01-28 05:52:00,34.0,34.0,29.85,North,0,0.0,-999.0,100,-99.99,,,-99.99,,2013-01-28 11:52:00,
2013-01-28 06:03:00,34.0,34.0,29.85,North,0,0.0,-999.0,100,-99.99,,,-99.99,,2013-01-28 12:03:00,
2013-01-28 06:12:00,34.0,34.0,29.84,North,0,0.0,-999.0,100,-99.99,,,-99.99,,2013-01-28 12:12:00,
2013-01-28 06:23:00,34.0,34.0,29.84,North,0,0.0,-999.0,100,-99.99,,,-99.99,,2013-01-28 12:23:00,
2013-01-28 06:33:00,34.0,34.0,29.85,North,0,0.0,-999.0,100,-99.99,,,-99.99,,2013-01-28 12:33:00,
2013-01-28 06:42:00,34.0,34.0,29.85,North,0,0.0,-999.0,100,-99.99,,,-99.99,,2013-01-28 12:42:00,
2013-01-28 06:52:00,34.0,34.0,29.85,North,0,0.0,-999.0,100,-99.99,,,-99.99,,2013-01-28 12:52:00,
2013-01-28 07:03:00,34.0,34.0,29.85,North,0,0.0,-999.0,100,-99.99,,,-99.99,,2013-01-28 13:03:00,
2013-01-28 07:12:00,34.0,34.0,29.85,North,0,0.0,-999.0,100,-99.99,,,-99.99,,2013-01-28 13:12:00,
2013-01-28 07:23:00,34.0,34.0,29.85,North,0,0.0,-999.0,100,-99.99,,,-99.99,,2013-01-28 13:23:00,
2013-01-28 07:33:00,34.0,34.0,29.84,ESE,120,5.0,-999.0,100,-99.99,,,-99.99,,2013-01-28 13:33:00,
2013-01-28 07:42:00,34.0,34.0,29.84,ESE,120,5.0,-999.0,100,-99.99,,,-99.99,,2013-01-28 13:42:00,
2013-01-28 07:52:00,34.0,34.0,29.84,ESE,120,5.0,-999.0,100,-99.99,,,-99.99,,2013-01-28 13:52:00,
2013-01-28 08:03:00,34.0,34.0,29.84,ESE,120,5.0,-999.0,100,-99.99,,,-99.99,,2013-01-28 14:03:00,
2013-01-28 08:12:00,34.0,34.0,29.84,SE,130,7.0,-999.0,100,-99.99,,,-99.99,,2013-01-28 14:12:00,
2013-01-28 08:22:00,34.0,34.0,29.84,SE,130,7.0,-999.0,100,-99.99,,,-99.99,,2013-01-28 14:22:00,
2013-01-28 08:33:00,34.0,34.0,29.85,North,0,0.0,-999.0,100,-99.99,,,-99.99,,2013-01-28 14:33:00,
2013-01-28 08:43:00,34.0,34.0,29.85,North,0,0.0,-999.0,100,-99.99,,,-99.99,,2013-01-28 14:43:00,
2013-01-28 08:52:00,36.0,36.0,29.84,SE,140,5.0,-999.0,100,-99.99,,,-99.99,,2013-01-28 14:52:00,
2013-01-28 09:03:00,36.0,36.0,29.84,SE,140,5.0,-999.0,100,-99.99,,,-99.99,,2013-01-28 15:03:00,
2013-01-28 09:12:00,36.0,36.0,29.86,North,0,0.0,-999.0,100,-99.99,,,-99.99,,2013-01-28 15:12:00,
2013-01-28 09:23:00,36.0,36.0,29.86,North,0,0.0,-999.0,100,-99.99,,,-99.99,,2013-01-28 15:23:00,
2013-01-28 09:33:00,36.0,36.0,29.86,North,0,0.0,-999.0,100,-99.99,,,-99.99,,2013-01-28 15:33:00,
2013-01-28 09:43:00,36.0,36.0,29.86,North,0,0.0,-999.0,100,-99.99,,,-99.99,,2013-01-28 15:43:00,
2013-01-28 09:52:00,36.0,36.0,29.84,North,0,0.0,-999.0,100,-99.99,,,-99.99,,2013-01-28 15:52:00,
2013-01-28 10:04:00,36.0,36.0,29.84,North,0,0.0,-999.0,100,-99.99,,,-99.99,,2013-01-28 16:04:00,
2013-01-28 10:12:00,36.0,36.0,29.84,North,0,0.0,-999.0,100,-99.99,,,-99.99,,2013-01-28 16:12:00,
2013-01-28 10:22:00,36.0,36.0,29.84,North,0,0.0,-999.0,100,-99.99,,,-99.99,,2013-01-28 16:22:00,
2013-01-28 10:32:00,36.0,36.0,29.83,ESE,120,5.0,-999.0,100,-99.99,,,-99.99,,2013-01-28 16:32:00,
2013-01-28 10:43:00,36.0,36.0,29.83,ESE,120,5.0,-999.0,100,-99.99,,,-99.99,,2013-01-28 16:43:00,
2013-01-28 10:52:00,36.0,36.0,29.83,ESE,110,8.0,-999.0,100,-99.99,,,-99.99,,2013-01-28 16:52:00,
2013-01-28 11:02:00,36.0,36.0,29.83,ESE,110,8.0,-999.0,100,-99.99,,,-99.99,,2013-01-28 17:02:00,
2013-01-28 11:12:00,34.0,34.0,29.84,SE,140,7.0,-999.0,100,-99.99,,,-99.99,,2013-01-28 17:12:00,
2013-01-28 11:23:00,34.0,34.0,29.84,SE,140,7.0,-999.0,100,-99.99,,,-99.99,,2013-01-28 17:23:00,
2013-01-28 11:32:00,34.0,34.0,29.85,SSE,150,7.0,-999.0,100,-99.99,,,-99.99,,2013-01-28 17:32:00,
2013-01-28 11:42:00,34.0,34.0,29.85,SSE,150,7.0,-999.0,100,-99.99,,,-99.99,,2013-01-28 17:42:00,
2013-01-28 11:52:00,34.0,34.0,29.85,SSE,150,5.0,-999.0,100,-99.99,,,-99.99,,2013-01-28 17:52:00,
2013-01-28 12:03:00,34.0,34.0,29.85,SSE,150,5.0,-999.0,100,-99.99,,,-99.99,,2013-01-28 18:03:00,
2013-01-28 12:12:00,36.0,36.0,29.83,ESE,110,7.0,-999.0,100,-99.99,,,-99.99,,2013-01-28 18:12:00,
2013-01-28 12:23:00,36.0,36.0,29.83,ESE,110,7.0,-999.0,100,-99.99,,,-99.99,,2013-01-28 18:23:00,
2013-01-28 12:33:00,36.0,36.0,29.82,SE,130,7.0,-999.0,100,-99.99,,,-99.99,,2013-01-28 18:33:00,
2013-01-28 12:42:00,36.0,36.0,29.82,SE,130,7.0,-999.0,100,-99.99,,,-99.99,,2013-01-28 18:42:00,
2013-01-28 12:52:00,36.0,36.0,29.81,SE,130,8.0,-999.0,100,-99.99,,,-99.99,,2013-01-28 18:52:00,
2013-01-28 13:02:00,36.0,36.0,29.81,SE,130,8.0,-999.0,100,-99.99,,,-99.99,,2013-01-28 19:02:00,
2013-01-28 13:12:00,36.0,36.0,29.81,South,170,9.0,-999.0,100,-99.99,,,-99.99,,2013-01-28 19:12:00,
2013-01-28 13:22:00,36.0,36.0,29.81,South,170,9.0,-999.0,100,-99.99,,,-99.99,,2013-01-28 19:22:00,
2013-01-28 13:32:00,34.0,34.0,29.80,SE,140,8.0,-999.0,100,-99.99,,,-99.99,,2013-01-28 19:32:00,
2013-01-28 13:42:00,34.0,34.0,29.80,SE,140,8.0,-999.0,100,-99.99,,,-99.99,,2013-01-28 19:42:00,
2013-01-28 13:52:00,34.0,34.0,29.80,South,170,7.0,-999.0,100,-99.99,,,-99.99,,2013-01-28 19:52:00,
2013-01-28 14:02:00,34.0,34.0,29.80,South,170,7.0,-999.0,100,-99.99,,,-99.99,,2013-01-28 20:02:00,
2013-01-28 14:12:00,36.0,36.0,29.79,South,170,6.0,-999.0,100,-99.99,,,-99.99,,2013-01-28 20:12:00,
2013-01-28 14:22:00,36.0,36.0,29.79,South,170,6.0,-999.0,100,-99.99,,,-99.99,,2013-01-28 20:22:00,
2013-01-28 14:33:00,36.0,36.0,29.78,North,0,0.0,-999.0,100,-99.99,,,-99.99,,2013-01-28 20:33:00,
2013-01-28 14:42:00,36.0,36.0,29.78,North,0,0.0,-999.0,100,-99.99,,,-99.99,,2013-01-28 20:42:00,
2013-01-28 14:52:00,36.0,36.0,29.76,North,0,0.0,-999.0,100,-99.99,,,-99.99,,2013-01-28 20:52:00,
2013-01-28 15:03:00,36.0,36.0,29.76,North,0,0.0,-999.0,100,-99.99,,,-99.99,,2013-01-28 21:03:00,
2013-01-28 15:11:00,36.0,36.0,29.75,NE,50,7.0,-999.0,100,-99.99,,,-99.99,,2013-01-28 21:11:00,
2013-01-28 15:22:00,36.0,36.0,29.75,NE,50,7.0,-999.0,100,-99.99,,,-99.99,,2013-01-28 21:22:00,
2013-01-28 15:33:00,36.0,36.0,29.74,NE,50,6.0,-999.0,100,-99.99,,,-99.99,,2013-01-28 21:33:00,
2013-01-28 15:43:00,36.0,36.0,29.74,NE,50,6.0,-999.0,100,-99.99,,,-99.99,,2013-01-28 21:43:00,
2013-01-28 15:52:00,36.0,36.0,29.74,NE,40,7.0,-999.0,100,-99.99,,,-99.99,,2013-01-28 21:52:00,
2013-01-28 16:02:00,36.0,36.0,29.74,NE,40,7.0,-999.0,100,-99.99,,,-99.99,,2013-01-28 22:02:00,
2013-01-28 16:11:00,36.0,36.0,29.74,ENE,60,6.0,-999.0,100,-99.99,,,-99.99,,2013-01-28 22:11:00,
2013-01-28 16:23:00,36.0,36.0,29.74,ENE,60,6.0,-999.0,100,-99.99,,,-99.99,,2013-01-28 22:23:00,
2013-01-28 16:32:00,36.0,36.0,29.73,NE,40,8.0,-999.0,100,-99.99,,,-99.99,,2013-01-28 22:32:00,
2013-01-28 16:42:00,36.0,36.0,29.73,NE,40,8.0,-999.0,100,-99.99,,,-99.99,,2013-01-28 22:42:00,
2013-01-28 16:52:00,34.0,34.0,29.73,NE,50,8.0,-999.0,100,-99.99,,,-99.99,,2013-01-28 22:52:00,
2013-01-28 17:02:00,34.0,34.0,29.73,NE,50,8.0,-999.0,100,-99.99,,,-99.99,,2013-01-28 23:02:00,
2013-01-28 17:11:00,34.0,34.0,29.72,NE,50,8.0,-999.0,100,-99.99,,,-99.99,,2013-01-28 23:11:00,
2013-01-28 17:22:00,34.0,34.0,29.72,NE,50,8.0,-999.0,100,-99.99,,,-99.99,,2013-01-28 23:22:00,
2013-01-28 17:32:00,34.0,34.0,29.70,NNE,30,9.0,-999.0,100,-99.99,,,-99.99,,2013-01-28 23:32:00,
2013-01-28 17:42:00,34.0,34.0,29.70,NNE,30,9.0,-999.0,100,-99.99,,,-99.99,,2013-01-28 23:42:00,
2013-01-28 17:52:00,34.0,34.0,29.70,NE,50,10.0,-999.0,100,-99.99,,,-99.99,,2013-01-28 23:52:00,
2013-01-28 18:02:00,34.0,34.0,29.70,NE,50,10.0,-999.0,100,-99.99,,,-99.99,,2013-01-29 00:02:00,
2013-01-28 18:12:00,34.0,34.0,29.72,ENE,70,6.0,-999.0,100,-99.99,,,-99.99,,2013-01-29 00:12:00,
2013-01-28 18:22:00,34.0,34.0,29.72,ENE,70,6.0,-999.0,100,-99.99,,,-99.99,,2013-01-29 00:22:00,
2013-01-28 18:32:00,34.0,34.0,29.72,ENE,70,8.0,-999.0,100,-99.99,,,-99.99,,2013-01-29 00:32:00,
2013-01-28 18:42:00,34.0,34.0,29.72,ENE,70,8.0,-999.0,100,-99.99,,,-99.99,,2013-01-29 00:42:00,
2013-01-28 18:52:00,34.0,34.0,29.73,NE,40,5.0,-999.0,100,-99.99,,,-99.99,,2013-01-29 00:52:00,
2013-01-28 19:02:00,34.0,34.0,29.73,NE,40,5.0,-999.0,100,-99.99,,,-99.99,,2013-01-29 01:02:00,
2013-01-28 19:12:00,34.0,34.0,29.72,NE,50,8.0,-999.0,100,-99.99,,,-99.99,,2013-01-29 01:12:00,
2013-01-28 19:23:00,34.0,34.0,29.72,NE,50,8.0,-999.0,100,-99.99,,,-99.99,,2013-01-29 01:23:00,
2013-01-28 19:32:00,34.0,34.0,29.70,ENE,60,7.0,-999.0,100,-99.99,,,-99.99,,2013-01-29 01:32:00,
2013-01-28 19:42:00,34.0,34.0,29.70,ENE,60,7.0,-999.0,100,-99.99,,,-99.99,,2013-01-29 01:42:00,
2013-01-28 19:52:00,34.0,34.0,29.71,ENE,60,7.0,-999.0,100,-99.99,,,-99.99,,2013-01-29 01:52:00,
2013-01-28 20:02:00,34.0,34.0,29.71,ENE,60,7.0,-999.0,100,-99.99,,,-99.99,,2013-01-29 02:02:00,
2013-01-28 20:12:00,34.0,34.0,29.71,ENE,60,6.0,-999.0,100,-99.99,,,-99.99,,2013-01-29 02:12:00,
2013-01-28 20:22:00,34.0,34.0,29.71,ENE,60,6.0,-999.0,100,-99.99,,,-99.99,,2013-01-29 02:22:00,
2013-01-28 20:33:00,34.0,34.0,29.70,NE,50,5.0,-999.0,100,-99.99,,,-99.99,,2013-01-29 02:33:00,
2013-01-28 20:42:00,34.0,34.0,29.70,NE,50,5.0,-999.0,100,-99.99,,,-99.99,,2013-01-29 02:42:00,
2013-01-28 20:52:00,34.0,34.0,29.69,NNE,30,5.0,-999.0,100,-99.99,,,-99.99,,2013-01-29 02:52:00,
2013-01-28 21:03:00,34.0,34.0,29.69,NNE,30,5.0,-999.0,100,-99.99,,,-99.99,,2013-01-29 03:03:00,
2013-01-28 21:11:00,34.0,34.0,29.68,NNE,20,5.0,-999.0,100,-99.99,,,-99.99,,2013-01-29 03:11:00,
2013-01-28 21:22:00,34.0,34.0,29.68,NNE,20,5.0,-999.0,100,-99.99,,,-99.99,,2013-01-29 03:22:00,
2013-01-28 21:32:00,34.0,34.0,29.67,North,0,0.0,-999.0,100,-99.99,,,-99.99,,2013-01-29 03:32:00,
2013-01-28 21:42:00,34.0,34.0,29.67,North,0,0.0,-999.0,100,-99.99,,,-99.99,,2013-01-29 03:42:00,
2013-01-28 21:52:00,34.0,34.0,29.67,North,0,0.0,-999.0,100,-99.99,,,-99.99,,2013-01-29 03:52:00,
2013-01-28 22:02:00,34.0,34.0,29.67,North,0,0.0,-999.0,100,-99.99,,,-99.99,,2013-01-29 04:02:00,
2013-01-28 22:11:00,34.0,34.0,29.65,North,0,0.0,-999.0,100,-99.99,,,-99.99,,2013-01-29 04:11:00,
2013-01-28 22:22:00,34.0,34.0,29.65,North,0,0.0,-999.0,100,-99.99,,,-99.99,,2013-01-29 04:22:00,
2013-01-28 22:32:00,34.0,34.0,29.64,North,0,0.0,-999.0,100,-99.99,,,-99.99,,2013-01-29 04:32:00,
2013-01-28 22:42:00,34.0,34.0,29.64,North,0,0.0,-999.0,100,-99.99,,,-99.99,,2013-01-29 04:42:00,
2013-01-28 22:51:00,34.0,34.0,29.62,North,0,0.0,-999.0,100,-99.99,,,-99.99,,2013-01-29 04:51:00,
2013-01-28 23:03:00,34.0,34.0,29.62,North,0,0.0,-999.0,100,-99.99,,,-99.99,,2013-01-29 05:03:00,
2013-01-28 23:12:00,34.0,34.0,29.61,North,0,0.0,-999.0,100,-99.99,,,-99.99,,2013-01-29 05:12:00,
2013-01-28 23:21:00,34.0,34.0,29.61,North,0,0.0,-999.0,100,-99.99,,,-99.99,,2013-01-29 05:21:00,
2013-01-28 23:32:00,34.0,34.0,29.62,North,0,0.0,-999.0,100,-99.99,,,-99.99,,2013-01-29 05:32:00,
2013-01-28 23:42:00,34.0,34.0,29.62,North,0,0.0,-999.0,100,-99.99,,,-99.99,,2013-01-29 05:42:00,
2013-01-28 23:52:00,34.0,34.0,29.62,NW,310,6.0,-999.0,100,-99.99,,,-99.99,,2013-01-29 05:52:00,